createdAt,value
2022-12-20T00:00:56.856Z,3.13
2022-12-20T00:03:20.812Z,4.77
2022-12-20T00:05:44.277Z,3.10
2022-12-20T00:08:08.298Z,2.50
2022-12-20T00:10:30.570Z,2.80
2022-12-20T00:12:52.721Z,2.93
2022-12-20T00:15:14.860Z,3.27
2022-12-20T00:17:37.447Z,3.70
2022-12-20T00:19:59.557Z,3.87
2022-12-20T00:22:21.807Z,3.33
2022-12-20T00:27:08.158Z,3.17
2022-12-20T00:29:30.178Z,3.60
2022-12-20T00:31:52.535Z,3.47
2022-12-20T00:34:14.770Z,3.37
2022-12-20T00:36:36.968Z,3.53
2022-12-20T00:39:01.088Z,3.40
2022-12-20T00:41:27.914Z,2.63
2022-12-20T00:43:50.073Z,3.37
2022-12-20T00:46:15.318Z,3.40
2022-12-20T00:48:38.107Z,3.17
2022-12-20T00:51:14.827Z,2.83
2022-12-20T00:53:37.787Z,2.97
2022-12-20T00:56:00.466Z,3.10
2022-12-20T00:58:23.297Z,3.17
2022-12-20T01:00:48.967Z,3.00
2022-12-20T01:03:14.941Z,2.80
2022-12-20T01:05:38.271Z,2.60
2022-12-20T01:08:02.699Z,2.83
2022-12-20T01:10:25.054Z,3.10
2022-12-20T01:12:47.084Z,3.17
2022-12-20T01:15:10.009Z,2.67
2022-12-20T01:17:32.186Z,3.13
2022-12-20T01:19:54.320Z,2.70
2022-12-20T01:22:16.273Z,3.57
2022-12-20T01:24:38.294Z,2.37
2022-12-20T01:27:00.217Z,2.40
2022-12-20T01:29:22.245Z,2.70
2022-12-20T01:31:45.018Z,2.47
2022-12-20T01:34:07.480Z,2.20
2022-12-20T01:36:35.074Z,2.40
2022-12-20T01:39:03.743Z,2.70
2022-12-20T01:41:27.500Z,2.67
2022-12-20T01:44:04.021Z,2.63
2022-12-20T01:46:30.261Z,2.63
2022-12-20T01:49:16.831Z,3.10
2022-12-20T01:51:44.944Z,2.73
2022-12-20T01:54:30.798Z,3.07
2022-12-20T01:57:00.993Z,2.70
2022-12-20T01:59:23.803Z,2.80
2022-12-20T02:01:46.305Z,2.87
2022-12-20T02:04:08.529Z,2.83
2022-12-20T02:06:30.448Z,2.90
2022-12-20T02:09:02.610Z,2.73
2022-12-20T02:11:56.034Z,2.90
2022-12-20T02:14:31.995Z,2.97
2022-12-20T02:17:17.934Z,2.77
2022-12-20T02:20:07.128Z,3.50
2022-12-20T02:23:03.009Z,3.00
2022-12-20T02:26:19.984Z,3.50
2022-12-20T02:29:15.647Z,3.13
2022-12-20T02:31:47.514Z,3.33
2022-12-20T02:34:12.264Z,3.77
2022-12-20T02:36:34.189Z,3.50
2022-12-20T02:38:56.046Z,3.40
2022-12-20T02:41:38.886Z,3.17
2022-12-20T02:44:36.444Z,3.37
2022-12-20T02:47:05.384Z,3.10
2022-12-20T02:49:34.380Z,2.77
2022-12-20T02:51:58.480Z,2.93
2022-12-20T02:54:21.253Z,2.72
2022-12-20T02:56:56.636Z,3.33
2022-12-20T02:59:32.468Z,3.00
2022-12-20T03:01:56.985Z,2.73
2022-12-20T03:07:01.241Z,2.67
2022-12-20T03:09:23.251Z,2.90
2022-12-20T03:11:45.093Z,3.07
2022-12-20T03:14:07.084Z,3.20
2022-12-20T03:16:29.162Z,3.17
2022-12-20T03:18:51.045Z,3.33
2022-12-20T03:21:13.116Z,3.20
2022-12-20T03:23:34.999Z,2.90
2022-12-20T03:25:56.869Z,3.30
2022-12-20T03:28:41.302Z,3.40
2022-12-20T03:31:05.117Z,3.05
2022-12-20T03:33:33.426Z,3.10
2022-12-20T03:36:00.347Z,3.27
2022-12-20T03:38:22.274Z,3.00
2022-12-20T03:40:44.417Z,2.80
2022-12-20T03:45:30.846Z,2.83
2022-12-20T03:47:53.668Z,2.87
2022-12-20T03:50:15.593Z,2.73
2022-12-20T03:52:38.707Z,2.63
2022-12-20T03:55:01.084Z,3.40
2022-12-20T03:57:32.993Z,3.00
2022-12-20T03:59:55.269Z,2.57
2022-12-20T04:02:17.399Z,3.50
2022-12-20T04:04:39.453Z,2.73
2022-12-20T04:07:01.536Z,2.40
2022-12-20T04:09:23.507Z,2.60
2022-12-20T04:11:50.433Z,3.00
2022-12-20T04:14:12.440Z,2.60
2022-12-20T04:16:34.829Z,2.83
2022-12-20T04:18:57.354Z,2.70
2022-12-20T04:21:31.826Z,2.50
2022-12-20T04:23:54.346Z,2.43
2022-12-20T04:26:17.818Z,3.03
2022-12-20T04:28:40.786Z,2.50
2022-12-20T04:31:05.678Z,2.40
2022-12-20T04:33:31.786Z,2.60
2022-12-20T04:35:54.662Z,2.70
2022-12-20T04:38:19.437Z,3.50
2022-12-20T04:43:04.306Z,2.90
2022-12-20T04:45:26.240Z,2.60
2022-12-20T04:47:49.631Z,2.30
2022-12-20T04:50:16.947Z,2.60
2022-12-20T04:52:57.586Z,2.30
2022-12-20T04:55:19.759Z,2.50
2022-12-20T04:57:41.706Z,2.10
2022-12-20T05:00:04.825Z,2.20
2022-12-20T05:02:27.021Z,2.20
2022-12-20T05:04:55.341Z,2.50
2022-12-20T05:07:17.303Z,2.27
2022-12-20T05:09:45.230Z,2.27
2022-12-20T05:12:07.400Z,2.97
2022-12-20T05:14:29.445Z,3.07
2022-12-20T05:16:51.917Z,2.47
2022-12-20T05:19:13.903Z,2.40
2022-12-20T05:21:55.140Z,2.50
2022-12-20T05:24:36.198Z,2.27
2022-12-20T05:27:18.737Z,2.40
2022-12-20T05:29:40.892Z,2.63
2022-12-20T05:32:02.858Z,2.57
2022-12-20T05:34:25.411Z,2.23
2022-12-20T05:36:49.237Z,2.30
2022-12-20T05:39:13.931Z,3.23
2022-12-20T05:41:40.499Z,2.60
2022-12-20T05:44:04.055Z,2.57
2022-12-20T05:46:29.182Z,2.53
2022-12-20T05:48:58.003Z,2.37
2022-12-20T05:51:20.069Z,2.63
2022-12-20T05:53:51.916Z,2.70
2022-12-20T05:56:18.851Z,2.40
2022-12-20T05:58:41.801Z,2.10
2022-12-20T06:01:08.080Z,2.50
2022-12-20T06:03:33.024Z,2.47
2022-12-20T06:05:57.040Z,2.60
2022-12-20T06:08:25.524Z,2.33
2022-12-20T06:10:49.357Z,2.47
2022-12-20T06:13:12.118Z,2.30
2022-12-20T06:15:34.477Z,2.47
2022-12-20T06:17:57.323Z,2.40
2022-12-20T06:20:19.401Z,2.37
2022-12-20T06:22:43.587Z,2.60
2022-12-20T06:25:06.344Z,2.47
2022-12-20T06:27:29.120Z,2.70
2022-12-20T06:30:06.164Z,2.57
2022-12-20T06:32:39.871Z,2.40
2022-12-20T06:35:02.992Z,2.30
2022-12-20T06:37:25.593Z,2.90
2022-12-20T06:39:47.568Z,2.83
2022-12-20T06:42:10.045Z,2.80
2022-12-20T06:44:34.340Z,2.40
2022-12-20T06:46:56.370Z,2.73
2022-12-20T06:49:18.781Z,2.60
2022-12-20T06:51:40.761Z,2.60
2022-12-20T06:54:02.859Z,2.60
2022-12-20T06:56:27.899Z,2.57
2022-12-20T06:58:49.762Z,2.77
2022-12-20T07:01:11.696Z,2.57
2022-12-20T07:03:33.737Z,2.37
2022-12-20T07:05:55.879Z,2.63
2022-12-20T07:08:17.846Z,2.50
2022-12-20T07:10:39.673Z,2.80
2022-12-20T07:13:01.808Z,2.43
2022-12-20T07:15:23.772Z,2.30
2022-12-20T07:17:48.742Z,2.50
2022-12-20T07:20:13.928Z,2.20
2022-12-20T07:22:36.679Z,2.10
2022-12-20T07:24:59.052Z,2.40
2022-12-20T07:27:21.127Z,2.20
2022-12-20T07:29:43.833Z,2.50
2022-12-20T07:32:07.122Z,2.50
2022-12-20T07:34:29.156Z,1.87
2022-12-20T07:36:51.258Z,2.30
2022-12-20T07:39:13.471Z,2.40
2022-12-20T07:41:35.591Z,2.17
2022-12-20T07:43:59.497Z,2.10
2022-12-20T07:46:21.766Z,2.20
2022-12-20T07:48:44.818Z,2.07
2022-12-20T07:51:12.272Z,2.57
2022-12-20T07:53:40.316Z,2.17
2022-12-20T07:56:05.019Z,1.90
2022-12-20T07:58:30.231Z,2.40
2022-12-20T08:00:52.437Z,2.13
2022-12-20T08:03:23.936Z,2.07
2022-12-20T08:05:52.905Z,2.23
2022-12-20T08:08:16.871Z,2.30
2022-12-20T08:10:39.705Z,2.35
2022-12-20T08:13:01.676Z,1.97
2022-12-20T08:15:24.136Z,2.03
2022-12-20T08:17:46.157Z,2.10
2022-12-20T08:20:08.927Z,2.23
2022-12-20T08:22:30.921Z,2.30
2022-12-20T08:24:52.820Z,2.30
2022-12-20T08:27:15.434Z,2.60
2022-12-20T08:29:37.359Z,2.53
2022-12-20T08:31:59.272Z,2.47
2022-12-20T08:34:21.326Z,2.43
2022-12-20T08:36:43.849Z,2.53
2022-12-20T08:39:07.958Z,2.37
2022-12-20T08:41:29.862Z,2.60
2022-12-20T08:43:51.866Z,2.40
2022-12-20T08:46:13.991Z,2.47
2022-12-20T08:48:36.439Z,2.20
2022-12-20T08:51:03.758Z,2.20
2022-12-20T08:53:26.040Z,2.27
2022-12-20T08:55:47.965Z,1.83
2022-12-20T08:58:09.887Z,2.30
2022-12-20T09:00:31.836Z,2.37
2022-12-20T09:02:55.374Z,2.10
2022-12-20T09:05:17.486Z,2.35
2022-12-20T09:07:39.832Z,2.10
2022-12-20T09:10:02.559Z,1.93
2022-12-20T09:12:24.590Z,2.07
2022-12-20T09:14:46.631Z,2.20
2022-12-20T09:17:08.568Z,2.10
2022-12-20T09:19:31.346Z,2.50
2022-12-20T09:21:55.473Z,2.33
2022-12-20T09:24:17.944Z,2.30
2022-12-20T09:26:40.915Z,2.30
2022-12-20T09:29:03.974Z,2.27
2022-12-20T09:31:27.258Z,2.33
2022-12-20T09:33:49.602Z,2.00
2022-12-20T09:36:20.436Z,2.30
2022-12-20T09:38:42.365Z,2.37
2022-12-20T09:41:08.496Z,2.43
2022-12-20T09:43:32.252Z,2.60
2022-12-20T09:45:59.753Z,3.03
2022-12-20T09:48:37.189Z,2.87
2022-12-20T09:51:06.491Z,2.23
2022-12-20T09:54:31.182Z,2.60
2022-12-20T09:57:14.868Z,2.30
2022-12-20T09:59:49.442Z,2.13
2022-12-20T10:04:57.670Z,1.90
2022-12-20T10:07:43.196Z,2.57
2022-12-20T10:10:36.483Z,2.57
2022-12-20T10:13:19.184Z,1.80
2022-12-20T10:15:54.747Z,2.50
2022-12-20T10:18:50.163Z,2.07
2022-12-20T10:21:38.436Z,2.13
2022-12-20T10:24:10.618Z,2.07
2022-12-20T10:26:34.157Z,1.70
2022-12-20T10:28:56.338Z,1.97
2022-12-20T10:31:19.362Z,2.17
2022-12-20T10:33:42.341Z,1.90
2022-12-20T10:36:29.252Z,2.07
2022-12-20T10:39:01.092Z,2.50
2022-12-20T10:41:30.479Z,2.00
2022-12-20T10:44:01.686Z,2.57
2022-12-20T10:46:36.050Z,1.97
2022-12-20T10:48:58.150Z,2.17
2022-12-20T10:51:22.959Z,2.40
2022-12-20T10:53:52.990Z,2.27
2022-12-20T10:56:34.200Z,1.97
2022-12-20T10:59:06.251Z,2.10
2022-12-20T11:01:36.128Z,2.30
2022-12-20T11:04:33.597Z,2.00
2022-12-20T11:06:57.373Z,1.80
2022-12-20T11:09:38.070Z,2.20
2022-12-20T11:12:16.431Z,2.10
2022-12-20T11:14:40.437Z,2.13
2022-12-20T11:17:36.469Z,2.63
2022-12-20T11:20:30.703Z,2.37
2022-12-20T11:23:48.477Z,2.60
2022-12-20T11:26:29.341Z,2.40
2022-12-20T11:29:09.703Z,2.67
2022-12-20T11:32:26.885Z,2.30
2022-12-20T11:35:21.306Z,2.77
2022-12-20T11:38:42.936Z,2.27
2022-12-20T11:41:27.010Z,2.50
2022-12-20T11:44:27.594Z,2.60
2022-12-20T11:47:11.946Z,2.97
2022-12-20T11:50:18.412Z,2.73
2022-12-20T11:52:54.726Z,3.20
2022-12-20T11:55:25.306Z,3.17
2022-12-20T11:58:16.944Z,2.97
2022-12-20T12:00:37.090Z,3.03
2022-12-20T12:03:24.101Z,3.17
2022-12-20T12:05:53.937Z,3.40
2022-12-20T12:08:41.485Z,3.13
2022-12-20T12:11:55.857Z,3.13
2022-12-20T12:14:04.538Z,2.90
2022-12-20T12:16:42.771Z,3.20
2022-12-20T12:19:12.767Z,3.20
2022-12-20T12:21:44.450Z,3.30
2022-12-20T12:24:32.867Z,3.30
2022-12-20T12:26:55.446Z,3.03
2022-12-20T12:29:19.917Z,3.00
2022-12-20T12:31:58.410Z,2.93
2022-12-20T12:34:47.768Z,3.30
2022-12-20T12:37:30.296Z,3.47
2022-12-20T12:40:20.521Z,3.23
2022-12-20T12:42:56.912Z,3.50
2022-12-20T12:45:41.002Z,3.27
2022-12-20T12:48:27.286Z,3.63
2022-12-20T12:50:55.589Z,3.40
2022-12-20T12:53:31.337Z,3.70
2022-12-20T12:56:12.924Z,3.53
2022-12-20T12:58:41.500Z,3.40
2022-12-20T13:01:12.604Z,3.50
2022-12-20T13:04:24.604Z,3.50
2022-12-20T13:06:57.648Z,3.83
2022-12-20T13:09:38.737Z,3.97
2022-12-20T13:12:38.405Z,3.40
2022-12-20T13:15:00.400Z,3.47
2022-12-20T13:17:26.000Z,4.37
2022-12-20T13:19:54.800Z,3.70
2022-12-20T13:22:25.034Z,4.00
2022-12-20T13:24:50.740Z,3.57
2022-12-20T13:27:34.381Z,3.83
2022-12-20T13:30:11.788Z,3.63
2022-12-20T13:32:48.954Z,3.73
2022-12-20T13:35:26.350Z,3.53
2022-12-20T13:38:06.381Z,3.30
2022-12-20T13:40:43.548Z,3.73
2022-12-20T13:43:25.606Z,3.63
2022-12-20T13:45:55.740Z,3.63
2022-12-20T13:48:39.753Z,3.80
2022-12-20T13:51:02.912Z,3.10
2022-12-20T13:53:27.937Z,2.90
2022-12-20T13:55:50.549Z,3.50
2022-12-20T13:58:19.560Z,3.33
2022-12-20T14:00:41.904Z,3.60
2022-12-20T14:03:05.149Z,3.40
2022-12-20T14:05:36.848Z,4.13
2022-12-20T14:08:16.139Z,3.60
2022-12-20T14:10:38.138Z,3.40
2022-12-20T14:13:00.237Z,3.60
2022-12-20T14:15:24.727Z,3.70
2022-12-20T14:20:22.482Z,3.07
2022-12-20T14:23:05.123Z,3.27
2022-12-20T14:25:58.567Z,3.43
2022-12-20T14:28:46.607Z,3.73
2022-12-20T14:31:46.954Z,3.37
2022-12-20T14:34:11.800Z,3.50
2022-12-20T14:36:34.481Z,3.80
2022-12-20T14:38:56.616Z,3.50
2022-12-20T14:41:43.746Z,3.90
2022-12-20T14:44:21.850Z,4.13
2022-12-20T14:46:53.573Z,3.47
2022-12-20T14:49:32.259Z,3.60
2022-12-20T14:52:08.184Z,3.90
2022-12-20T14:55:06.249Z,3.77
2022-12-20T14:57:24.751Z,3.73
2022-12-20T15:00:14.993Z,3.75
2022-12-20T15:02:56.947Z,3.90
2022-12-20T15:05:40.373Z,4.20
2022-12-20T15:08:28.744Z,4.27
2022-12-20T15:10:58.303Z,4.70
2022-12-20T15:13:37.422Z,4.17
2022-12-20T15:16:06.412Z,4.20
2022-12-20T15:18:28.350Z,4.50
2022-12-20T15:21:10.544Z,4.10
2022-12-20T15:23:33.242Z,4.20
2022-12-20T15:25:55.261Z,4.33
2022-12-20T15:28:23.725Z,4.50
2022-12-20T15:30:48.202Z,4.30
2022-12-20T15:35:38.204Z,4.30
2022-12-20T15:38:00.105Z,4.53
2022-12-20T15:40:22.019Z,5.00
2022-12-20T15:42:44.068Z,4.50
2022-12-20T15:45:06.567Z,5.00
2022-12-20T15:47:28.575Z,4.97
2022-12-20T15:49:50.905Z,5.27
2022-12-20T15:52:21.792Z,4.53
2022-12-20T15:54:43.640Z,5.07
2022-12-20T15:57:11.535Z,4.50
2022-12-20T15:59:59.665Z,5.13
2022-12-20T16:02:27.402Z,5.30
2022-12-20T16:04:50.881Z,5.30
2022-12-20T16:07:13.215Z,5.10
2022-12-20T16:09:35.091Z,5.13
2022-12-20T16:11:57.283Z,5.20
2022-12-20T16:14:21.652Z,5.60
2022-12-20T16:19:06.270Z,5.13
2022-12-20T16:21:36.283Z,5.63
2022-12-20T16:23:58.891Z,5.57
2022-12-20T16:26:24.932Z,5.13
2022-12-20T16:28:50.161Z,5.23
2022-12-20T16:31:31.064Z,5.17
2022-12-20T16:33:55.832Z,5.17
2022-12-20T16:36:18.056Z,5.50
2022-12-20T16:38:40.828Z,5.93
2022-12-20T16:41:23.115Z,5.03
2022-12-20T16:43:47.675Z,5.40
2022-12-20T16:46:14.174Z,6.00
2022-12-20T16:48:36.739Z,5.60
2022-12-20T16:50:58.811Z,5.60
2022-12-20T16:53:21.199Z,5.87
2022-12-20T16:55:43.282Z,6.00
2022-12-20T16:58:05.746Z,5.47
2022-12-20T17:00:28.518Z,5.93
2022-12-20T17:02:51.890Z,6.10
2022-12-20T17:05:39.733Z,6.10
2022-12-20T17:08:01.950Z,6.07
2022-12-20T17:10:27.134Z,6.30
2022-12-20T17:12:49.870Z,6.63
2022-12-20T17:15:32.007Z,6.40
2022-12-20T17:17:55.055Z,6.60
2022-12-20T17:20:19.542Z,6.27
2022-12-20T17:25:29.452Z,6.03
2022-12-20T17:27:52.430Z,6.03
2022-12-20T17:30:14.704Z,6.20
2022-12-20T17:32:36.846Z,6.20
2022-12-20T17:34:58.786Z,6.33
2022-12-20T17:37:21.702Z,6.77
2022-12-20T17:39:44.133Z,6.67
2022-12-20T17:42:06.195Z,6.97
2022-12-20T17:44:29.357Z,6.37
2022-12-20T17:46:53.302Z,6.97
2022-12-20T17:49:16.577Z,7.00
2022-12-20T17:51:38.893Z,6.68
2022-12-20T17:54:04.033Z,6.63
2022-12-20T17:56:30.914Z,6.57
2022-12-20T17:58:55.373Z,7.00
2022-12-20T18:01:24.947Z,7.20
2022-12-20T18:04:05.601Z,7.43
2022-12-20T18:06:32.439Z,7.00
2022-12-20T18:08:57.528Z,6.90
2022-12-20T18:11:22.573Z,7.27
2022-12-20T18:13:50.033Z,6.57
2022-12-20T18:16:20.531Z,7.50
2022-12-20T18:18:42.888Z,7.70
2022-12-20T18:21:08.328Z,7.47
2022-12-20T18:23:33.341Z,7.70
2022-12-20T18:26:11.141Z,7.80
2022-12-20T18:28:33.380Z,8.47
2022-12-20T18:30:55.487Z,8.50
2022-12-20T18:33:17.398Z,8.20
2022-12-20T18:35:39.270Z,8.50
2022-12-20T18:38:01.127Z,8.10
2022-12-20T18:40:23.084Z,8.20
2022-12-20T18:42:48.289Z,8.40
2022-12-20T18:45:11.454Z,8.93
2022-12-20T18:47:33.363Z,8.60
2022-12-20T18:49:55.395Z,8.60
2022-12-20T18:52:17.530Z,8.50
2022-12-20T18:54:39.500Z,8.80
2022-12-20T18:57:01.458Z,9.37
2022-12-20T18:59:23.549Z,9.27
2022-12-20T19:01:45.618Z,9.93
2022-12-20T19:04:09.028Z,9.37
2022-12-20T19:06:32.971Z,9.40
2022-12-20T19:08:55.226Z,9.15
2022-12-20T19:11:23.240Z,9.47
2022-12-20T19:13:45.681Z,9.20
2022-12-20T19:16:15.680Z,8.40
2022-12-20T19:18:37.834Z,9.17
2022-12-20T19:21:08.764Z,9.90
2022-12-20T19:23:30.672Z,9.57
2022-12-20T19:25:52.670Z,9.60
2022-12-20T19:28:14.614Z,9.07
2022-12-20T19:30:36.708Z,9.77
2022-12-20T19:32:58.730Z,10.07
2022-12-20T19:35:54.407Z,10.37
2022-12-20T19:38:06.704Z,10.30
2022-12-20T19:40:29.031Z,10.02
2022-12-20T19:42:51.103Z,9.43
2022-12-20T19:45:13.196Z,10.23
2022-12-20T19:47:35.410Z,10.33
2022-12-20T19:49:57.296Z,11.00
2022-12-20T19:52:28.282Z,10.80
2022-12-20T19:54:50.979Z,10.53
2022-12-20T19:57:13.044Z,11.43
2022-12-20T19:59:35.527Z,11.80
2022-12-20T20:01:57.729Z,11.60
2022-12-20T20:04:20.003Z,11.23
2022-12-20T20:06:42.198Z,10.67
2022-12-20T20:09:04.228Z,11.20
2022-12-20T20:11:29.016Z,11.63
2022-12-20T20:13:52.748Z,12.13
2022-12-20T20:16:20.238Z,12.20
2022-12-20T20:18:46.831Z,11.87
2022-12-20T20:21:14.545Z,12.23
2022-12-20T20:23:38.174Z,11.93
2022-12-20T20:26:00.678Z,12.40
2022-12-20T20:28:31.700Z,11.80
2022-12-20T20:30:55.453Z,12.10
2022-12-20T20:33:18.000Z,12.77
2022-12-20T20:35:40.421Z,12.00
2022-12-20T20:38:02.446Z,12.63
2022-12-20T20:40:24.329Z,12.17
2022-12-20T20:42:46.254Z,12.77
2022-12-20T20:45:09.090Z,12.20
2022-12-20T20:47:33.761Z,12.23
2022-12-20T20:49:55.595Z,12.20
2022-12-20T20:52:17.438Z,12.97
2022-12-20T20:54:39.350Z,12.27
2022-12-20T20:57:01.269Z,12.47
2022-12-20T20:59:23.268Z,12.90
2022-12-20T21:01:45.565Z,11.77
2022-12-20T21:04:07.788Z,12.37
2022-12-20T21:06:40.033Z,11.53
2022-12-20T21:09:05.200Z,11.73
2022-12-20T21:11:28.208Z,12.00
2022-12-20T21:13:50.307Z,11.43
2022-12-20T21:16:20.758Z,12.10
2022-12-20T21:18:43.025Z,11.47
2022-12-20T21:21:11.710Z,11.67
2022-12-20T21:23:33.745Z,12.37
2022-12-20T21:25:59.553Z,11.47
2022-12-20T21:28:21.630Z,11.83
2022-12-20T21:30:43.507Z,11.97
2022-12-20T21:33:05.388Z,12.13
2022-12-20T21:35:27.298Z,11.97
2022-12-20T21:37:49.241Z,12.20
2022-12-20T21:40:12.223Z,11.87
2022-12-20T21:42:34.136Z,11.60
2022-12-20T21:44:55.968Z,11.43
2022-12-20T21:47:17.825Z,12.27
2022-12-20T21:49:39.731Z,12.20
2022-12-20T21:52:01.656Z,11.07
2022-12-20T21:54:23.967Z,12.07
2022-12-20T21:56:45.860Z,11.80
2022-12-20T21:59:10.116Z,12.03
2022-12-20T22:01:32.452Z,11.43
2022-12-20T22:04:02.426Z,11.67
2022-12-20T22:06:25.552Z,11.10
2022-12-20T22:08:47.826Z,12.47
2022-12-20T22:11:17.238Z,11.87
2022-12-20T22:13:42.055Z,12.03
2022-12-20T22:16:26.075Z,11.73
2022-12-20T22:18:51.021Z,13.20
2022-12-20T22:21:16.401Z,11.87
2022-12-20T22:23:39.010Z,12.63
2022-12-20T22:26:07.291Z,12.63
2022-12-20T22:28:29.667Z,13.63
2022-12-20T22:30:52.462Z,13.43
2022-12-20T22:33:14.336Z,13.80
2022-12-20T22:35:36.228Z,12.77
2022-12-20T22:37:58.090Z,14.60
2022-12-20T22:40:20.233Z,14.47
2022-12-20T22:42:42.133Z,14.57
2022-12-20T22:45:05.276Z,14.60
2022-12-20T22:47:27.223Z,14.47
2022-12-20T22:49:49.114Z,14.10
2022-12-20T22:52:11.147Z,13.67
2022-12-20T22:54:33.318Z,14.23
2022-12-20T22:56:56.177Z,13.70
2022-12-20T22:59:18.613Z,14.07
2022-12-20T23:01:40.565Z,12.83
2022-12-20T23:04:02.780Z,13.90
2022-12-20T23:06:24.771Z,13.47
2022-12-20T23:08:47.977Z,13.90
2022-12-20T23:11:43.232Z,14.13
2022-12-20T23:14:24.696Z,13.65
2022-12-20T23:16:46.681Z,13.07
2022-12-20T23:19:08.836Z,14.30
2022-12-20T23:21:49.193Z,13.53
2022-12-20T23:24:13.512Z,13.47
2022-12-20T23:26:37.027Z,14.25
2022-12-20T23:31:21.557Z,13.77
2022-12-20T23:33:44.638Z,13.33
2022-12-20T23:36:07.690Z,15.17
2022-12-20T23:38:35.263Z,15.00
2022-12-20T23:40:57.139Z,14.67
2022-12-20T23:43:19.311Z,15.33
2022-12-20T23:45:41.302Z,15.90
2022-12-20T23:48:03.430Z,15.03
2022-12-20T23:50:25.323Z,15.20
2022-12-20T23:52:47.286Z,15.80
2022-12-20T23:55:09.620Z,15.27
2022-12-20T23:57:31.868Z,15.80
2022-12-20T23:59:53.838Z,15.33
